Terminal Aerodrome Forecast
Issued by NWS

Home | Current Version | Previous Version | Text Only | Print | Product List | Glossary On
Versions: 1 2 3 4 5 6 7 8 9 10 11 12 13 14 15 16 17 18
000
FTUS46 KMTR 232300
TAFMRY
TAF
KMRY 232339Z 2400/2424 24012G18KT P6SM SCT015 OVC025
     FM240300 24004KT P6SM OVC015
     FM241730 26005KT P6SM BKN020=

USA.gov is the U.S. government's official web portal to all federal, state and local government web resources and services.